Time;durP1;ratioP1;P1;durP2;ratioP2;P2;SDS_P1;SDS_P2;PMS_P1;PMS_P2;Temp;Humidity;BMP_temperature;BMP_pressure;BME280_temperature;BME280_humidity;BME280_pressure;Samples;Min_cycle;Max_cycle;Signal;HPM_P1;HPM_P2
2019/06/27 00:01:32;;;;;;;21;6.2;;;;;;;22.64;61.20996;945.9373;;;;
2019/06/27 00:04:07;;;;;;;17;6.7;;;;;;;22.44;61.89844;946.0019;;;;
2019/06/27 00:06:38;;;;;;;21.8;6.5;;;;;;;22.4;62.25586;945.9426;;;;
2019/06/27 00:09:10;;;;;;;21.3;7.3;;;;;;;22.51;61.9541;945.937;;;;
2019/06/27 00:11:35;;;;;;;19.5;6.2;;;;;;;22.71;61.11328;945.9673;;;;
2019/06/27 00:14:07;;;;;;;18.4;6.6;;;;;;;22.76;60.81543;945.9642;;;;
2019/06/27 00:16:40;;;;;;;22.2;7.2;;;;;;;22.63;61.49023;945.8953;;;;
2019/06/27 00:19:12;;;;;;;24.1;6.9;;;;;;;22.59;61.58984;945.8271;;;;
2019/06/27 00:21:46;;;;;;;22.7;7.3;;;;;;;22.65;61.21094;945.8453;;;;
2019/06/27 00:24:16;;;;;;;18.4;6.7;;;;;;;22.67;61.37793;945.7773;;;;
2019/06/27 00:26:43;;;;;;;17.2;6.9;;;;;;;22.69;61.30957;945.8483;;;;
2019/06/27 00:29:13;;;;;;;21.2;6.9;;;;;;;22.45;61.47656;945.8011;;;;
2019/06/27 00:31:38;;;;;;;21.6;8.2;;;;;;;22.37;62.58008;945.7899;;;;
2019/06/27 00:34:06;;;;;;;19.8;7;;;;;;;22.19;63.43359;945.7265;;;;
2019/06/27 00:36:33;;;;;;;17.7;6.6;;;;;;;22.12;63.69336;945.7234;;;;
2019/06/27 00:39:11;;;;;;;17.2;6.4;;;;;;;22.02;64.23047;945.7745;;;;
2019/06/27 00:41:37;;;;;;;22.4;7.2;;;;;;;21.84;64.36816;945.7372;;;;
2019/06/27 00:44:11;;;;;;;23.2;7.4;;;;;;;21.84;64.62598;945.7452;;;;
2019/06/27 00:46:39;;;;;;;22;7;;;;;;;21.92;63.81738;945.7134;;;;
2019/06/27 00:49:02;;;;;;;26.1;6.7;;;;;;;21.91;63.62695;945.6766;;;;
2019/06/27 00:51:35;;;;;;;21.2;7;;;;;;;21.94;63.11719;945.7025;;;;
2019/06/27 00:54:01;;;;;;;16.7;6.7;;;;;;;22.06;62.86523;945.7313;;;;
2019/06/27 00:56:30;;;;;;;18.4;7.3;;;;;;;21.92;63.52441;945.7434;;;;
2019/06/27 00:58:57;;;;;;;17.7;7.3;;;;;;;22.18;62.7998;945.7754;;;;
2019/06/27 01:01:28;;;;;;;20.4;7.4;;;;;;;22.12;63.07227;945.7614;;;;
2019/06/27 01:04:12;;;;;;;23;7.9;;;;;;;22.11;63.08105;945.7464;;;;
2019/06/27 01:06:42;;;;;;;17.5;6.8;;;;;;;22.16;63.01953;945.7084;;;;
2019/06/27 01:09:07;;;;;;;21.2;7.9;;;;;;;22.1;63.18652;945.6785;;;;
2019/06/27 01:11:38;;;;;;;25.6;7.7;;;;;;;22.06;63.1582;945.6096;;;;
2019/06/27 01:14:12;;;;;;;18.7;6.7;;;;;;;21.87;63.46973;945.5597;;;;
2019/06/27 01:16:52;;;;;;;19.7;7.2;;;;;;;21.96;63.37793;945.5998;;;;
2019/06/27 01:19:15;;;;;;;21.3;7.8;;;;;;;21.88;63.66992;945.5377;;;;
2019/06/27 01:21:42;;;;;;;18.4;6.8;;;;;;;21.75;63.75781;945.5062;;;;
2019/06/27 01:24:12;;;;;;;22.3;6.8;;;;;;;21.66;64.38965;945.4521;;;;
2019/06/27 01:26:48;;;;;;;22.7;7.6;;;;;;;21.45;64.3584;945.4363;;;;
2019/06/27 01:29:21;;;;;;;20.6;7.1;;;;;;;21.38;64.93359;945.4406;;;;
2019/06/27 01:32:01;;;;;;;18.1;6.8;;;;;;;21.51;63.80566;945.4324;;;;
2019/06/27 01:34:28;;;;;;;18.9;6.8;;;;;;;21.58;63.88672;945.3887;;;;
2019/06/27 01:36:59;;;;;;;19.4;7.3;;;;;;;21.82;63.55664;945.3976;;;;
2019/06/27 01:39:39;;;;;;;18.5;7.1;;;;;;;21.92;63.7002;945.394;;;;
2019/06/27 01:42:14;;;;;;;20.1;7.4;;;;;;;21.98;62.78223;945.3901;;;;
2019/06/27 01:44:45;;;;;;;20.1;7.7;;;;;;;21.88;62.95508;945.3211;;;;
2019/06/27 01:47:21;;;;;;;21.6;7.6;;;;;;;21.65;63.93066;945.2855;;;;
2019/06/27 01:49:39;;;;;;;19.1;7.2;;;;;;;21.53;63.97168;945.2748;;;;
2019/06/27 01:52:13;;;;;;;22.9;8;;;;;;;21.43;64.51953;945.2615;;;;
2019/06/27 01:54:39;;;;;;;22.4;7.6;;;;;;;21.36;64.67285;945.2781;;;;
2019/06/27 01:57:12;;;;;;;27.5;8;;;;;;;21.4;64.72461;945.2303;;;;
2019/06/27 01:59:39;;;;;;;22.2;8;;;;;;;21.33;64.86816;945.248;;;;
2019/06/27 02:02:04;;;;;;;23.9;7.6;;;;;;;21.58;63.875;945.259;;;;
2019/06/27 02:04:30;;;;;;;21.7;7.7;;;;;;;21.28;65.19922;945.2198;;;;
2019/06/27 02:07:03;;;;;;;19.5;7.3;;;;;;;21.19;65.64258;945.226;;;;
2019/06/27 02:09:32;;;;;;;21.9;7.8;;;;;;;21.32;65.20605;945.2271;;;;
2019/06/27 02:11:58;;;;;;;20.9;7.9;;;;;;;21.38;64.80566;945.2542;;;;
2019/06/27 02:14:28;;;;;;;21.9;7.6;;;;;;;21.4;64.73828;945.2772;;;;
2019/06/27 02:16:55;;;;;;;20.8;7.3;;;;;;;21.59;64.26074;945.3269;;;;
2019/06/27 02:19:25;;;;;;;22.4;7.5;;;;;;;21.45;64.32324;945.3455;;;;
2019/06/27 02:22:00;;;;;;;23.7;7.1;;;;;;;21.04;65.16504;945.318;;;;
2019/06/27 02:24:28;;;;;;;21;7.2;;;;;;;20.86;65.5127;945.3666;;;;
2019/06/27 02:27:01;;;;;;;28;8.4;;;;;;;20.54;66.96094;945.3969;;;;
2019/06/27 02:29:33;;;;;;;21.9;6.7;;;;;;;20.47;67.08887;945.4362;;;;
2019/06/27 02:32:03;;;;;;;23.7;7.1;;;;;;;20.77;65.83691;945.4644;;;;
2019/06/27 02:34:31;;;;;;;21.1;7;;;;;;;21.05;65.0957;945.4766;;;;
2019/06/27 02:36:59;;;;;;;19.1;6.9;;;;;;;21.2;64.52148;945.4104;;;;
2019/06/27 02:39:27;;;;;;;20.3;6.7;;;;;;;21.3;64.00879;945.4553;;;;
2019/06/27 02:42:01;;;;;;;22.4;7.6;;;;;;;21.33;64.54004;945.4294;;;;
2019/06/27 02:44:31;;;;;;;19;7.6;;;;;;;21.33;64.02539;945.4554;;;;
2019/06/27 02:47:07;;;;;;;20.7;7.3;;;;;;;21.3;63.8457;945.4503;;;;
2019/06/27 02:49:28;;;;;;;24.1;7.3;;;;;;;21.25;64.17773;945.457;;;;
2019/06/27 02:51:53;;;;;;;24;7.5;;;;;;;21.01;65.11133;945.478;;;;
2019/06/27 02:54:21;;;;;;;17.8;7.3;;;;;;;21.08;65.03027;945.4736;;;;
2019/06/27 02:56:48;;;;;;;22.3;7.3;;;;;;;21.26;64.02637;945.4292;;;;
2019/06/27 02:59:22;;;;;;;21;7.4;;;;;;;21.11;65.52637;945.4559;;;;
2019/06/27 03:01:55;;;;;;;24.5;7.7;;;;;;;21.15;64.58398;945.4949;;;;
2019/06/27 03:04:32;;;;;;;23;7.5;;;;;;;21.22;63.96289;945.4165;;;;
2019/06/27 03:06:59;;;;;;;47.1;8.6;;;;;;;21.13;64.39355;945.4459;;;;
2019/06/27 03:09:31;;;;;;;21.5;7;;;;;;;21.07;64.91113;945.4357;;;;
2019/06/27 03:12:06;;;;;;;21.3;7.6;;;;;;;20.95;65.46777;945.4677;;;;
2019/06/27 03:14:38;;;;;;;22.4;7.2;;;;;;;20.95;65.18652;945.4288;;;;
2019/06/27 03:17:15;;;;;;;20.7;7.2;;;;;;;20.69;65.31152;945.4738;;;;
2019/06/27 03:19:41;;;;;;;23.8;6.8;;;;;;;20.66;65.5166;945.4606;;;;
2019/06/27 03:22:10;;;;;;;24.6;7.5;;;;;;;20.7;65.00879;945.5197;;;;
2019/06/27 03:24:33;;;;;;;23.4;6.9;;;;;;;20.87;63.92285;945.4135;;;;
2019/06/27 03:27:01;;;;;;;20.8;6.9;;;;;;;20.84;63.5332;945.3784;;;;
2019/06/27 03:29:28;;;;;;;36.9;8.5;;;;;;;20.75;63.86035;945.4314;;;;
2019/06/27 03:31:55;;;;;;;22.7;6.7;;;;;;;20.88;63.70313;945.567;;;;
2019/06/27 03:34:30;;;;;;;22;6.9;;;;;;;20.47;65.44238;945.5268;;;;
2019/06/27 03:36:57;;;;;;;22;7.3;;;;;;;20.46;65.89746;945.5536;;;;
2019/06/27 03:39:34;;;;;;;21.3;7.3;;;;;;;20.06;67.73926;945.5504;;;;
2019/06/27 03:42:05;;;;;;;21.9;7.2;;;;;;;20.24;66.44727;945.5413;;;;
2019/06/27 03:44:30;;;;;;;24;7.3;;;;;;;20.2;67.21289;945.5884;;;;
2019/06/27 03:47:02;;;;;;;26.3;7.5;;;;;;;20.28;67.00195;945.6143;;;;
2019/06/27 03:49:37;;;;;;;23.5;7.4;;;;;;;20.43;66.74609;945.6002;;;;
2019/06/27 03:51:57;;;;;;;24.3;7.5;;;;;;;20.6;66.24512;945.6054;;;;
2019/06/27 03:54:29;;;;;;;24.2;7.8;;;;;;;20.77;66.17676;945.6367;;;;
2019/06/27 03:57:03;;;;;;;26.2;7.2;;;;;;;20.7;65.32324;945.6242;;;;
2019/06/27 03:59:27;;;;;;;23.6;7.4;;;;;;;20.73;65.64258;945.6982;;;;
2019/06/27 04:02:34;;;;;;;23.7;7.8;;;;;;;20.43;66.71973;945.7047;;;;
2019/06/27 04:05:14;;;;;;;19.6;7.6;;;;;;;20.4;66.96094;945.6989;;;;
2019/06/27 04:07:44;;;;;;;28.5;8.1;;;;;;;20.5;66.7793;945.777;;;;
2019/06/27 04:10:20;;;;;;;21.2;7.6;;;;;;;20.72;65.61914;945.6822;;;;
2019/06/27 04:12:47;;;;;;;19.9;7.4;;;;;;;20.87;65.12695;945.6725;;;;
2019/06/27 04:15:13;;;;;;;22.7;7.3;;;;;;;20.79;65.65527;945.8192;;;;
2019/06/27 04:17:44;;;;;;;18.5;7;;;;;;;21;65.19336;945.746;;;;
2019/06/27 04:20:18;;;;;;;21.6;7.4;;;;;;;21;66.58496;945.8417;;;;
2019/06/27 04:22:53;;;;;;;25.3;7.1;;;;;;;21.08;64.26953;945.8445;;;;
2019/06/27 04:25:30;;;;;;;21.8;6.9;;;;;;;21.14;63.97461;945.8627;;;;
2019/06/27 04:27:54;;;;;;;20.8;6.9;;;;;;;20.98;64.61719;945.8396;;;;
2019/06/27 04:30:20;;;;;;;26.3;7.8;;;;;;;21.06;64.90918;945.8304;;;;
2019/06/27 04:32:55;;;;;;;28.9;8.4;;;;;;;20.91;65.34277;945.7754;;;;
2019/06/27 04:35:19;;;;;;;24.4;7.4;;;;;;;20.56;66.07422;945.8741;;;;
2019/06/27 04:37:57;;;;;;;20.5;7.2;;;;;;;20.64;66.09863;945.8689;;;;
2019/06/27 04:40:26;;;;;;;25.3;7.8;;;;;;;20.83;65.76465;945.8666;;;;
2019/06/27 04:42:54;;;;;;;26.1;7.7;;;;;;;20.82;65.72754;945.8423;;;;
2019/06/27 04:45:25;;;;;;;25.2;8.2;;;;;;;20.81;65.72656;945.8173;;;;
2019/06/27 04:48:00;;;;;;;22.9;7.7;;;;;;;21.09;65.18457;945.9034;;;;
2019/06/27 04:50:32;;;;;;;24.2;7.8;;;;;;;21.41;64.20117;945.9155;;;;
2019/06/27 04:52:57;;;;;;;23.8;7.5;;;;;;;21.52;64.02832;945.9372;;;;
2019/06/27 04:55:27;;;;;;;23.6;7.5;;;;;;;21.39;63.72852;945.9055;;;;
2019/06/27 04:57:53;;;;;;;25.8;8;;;;;;;21.43;63.60645;945.7932;;;;
2019/06/27 05:00:35;;;;;;;24.3;7.7;;;;;;;21.49;63.52051;945.7814;;;;
2019/06/27 05:02:57;;;;;;;24.8;7.6;;;;;;;21.64;63.09766;945.7703;;;;
2019/06/27 05:05:29;;;;;;;24.6;6.9;;;;;;;22.2;61.74707;945.7434;;;;
2019/06/27 05:08:02;;;;;;;23.1;6.6;;;;;;;23.06;59.08301;945.7347;;;;
2019/06/27 05:10:40;;;;;;;22.6;6.9;;;;;;;23.86;56.71582;945.6379;;;;
2019/06/27 05:13:08;;;;;;;26;7.1;;;;;;;24.61;54.47754;945.6649;;;;
2019/06/27 05:15:33;;;;;;;26.3;6.8;;;;;;;25.18;52.88281;945.5762;;;;
2019/06/27 05:18:05;;;;;;;25.2;7;;;;;;;25.77;52.4082;945.5322;;;;
2019/06/27 05:20:46;;;;;;;20;6.9;;;;;;;26.55;50.16797;945.5594;;;;
2019/06/27 05:23:11;;;;;;;27.7;7.9;;;;;;;27.28;46.41797;945.5822;;;;
2019/06/27 05:29:14;;;;;;;24.6;6.7;;;;;;;28.15;44.75;945.5515;;;;
2019/06/27 05:31:48;;;;;;;23.6;6.6;;;;;;;28.33;43.85352;945.5579;;;;
2019/06/27 05:34:20;;;;;;;19.8;6.6;;;;;;;28.48;43.91504;945.5697;;;;
2019/06/27 05:36:51;;;;;;;22.7;6.6;;;;;;;28.43;43.13672;945.4165;;;;
2019/06/27 05:39:16;;;;;;;22.7;6.4;;;;;;;28.56;45.75391;945.563;;;;
2019/06/27 05:41:51;;;;;;;23.7;6.5;;;;;;;29.2;44.58008;945.4893;;;;
2019/06/27 05:44:19;;;;;;;21.9;6.4;;;;;;;30.09;42.58008;945.5527;;;;
2019/06/27 05:46:44;;;;;;;30.7;6.9;;;;;;;30.06;38.47266;945.4747;;;;
2019/06/27 05:49:12;;;;;;;22.3;6.3;;;;;;;30.23;38.54492;945.4697;;;;
2019/06/27 05:51:38;;;;;;;20.6;6.2;;;;;;;30.64;37.58887;945.4781;;;;
2019/06/27 05:54:05;;;;;;;18.6;5.8;;;;;;;31.29;38.69629;945.4937;;;;
2019/06/27 05:56:42;;;;;;;23.2;6.2;;;;;;;31.79;36.7627;945.4885;;;;
2019/06/27 05:59:10;;;;;;;20.3;5.8;;;;;;;32.23;36.15137;945.4583;;;;
2019/06/27 06:01:46;;;;;;;20.7;5.7;;;;;;;32.92;35.22168;945.4584;;;;
2019/06/27 06:04:13;;;;;;;25;6;;;;;;;33.12;33.85449;945.4767;;;;
2019/06/27 06:06:48;;;;;;;18.5;5.6;;;;;;;32.94;36.69922;945.4069;;;;
2019/06/27 06:09:11;;;;;;;20.5;5.6;;;;;;;33.12;33.14648;945.4807;;;;
2019/06/27 06:11:49;;;;;;;18.2;5.7;;;;;;;33.41;33.84082;945.3284;;;;
2019/06/27 06:14:14;;;;;;;25.6;6.3;;;;;;;33.94;33.49414;945.3773;;;;
2019/06/27 06:16:50;;;;;;;23.9;6;;;;;;;34.56;30.59961;945.3977;;;;
2019/06/27 06:19:11;;;;;;;22.5;5.7;;;;;;;34.95;30.67383;945.3726;;;;
2019/06/27 06:21:45;;;;;;;24.9;6.2;;;;;;;35.38;28.84375;945.4522;;;;
2019/06/27 06:24:17;;;;;;;20.5;6;;;;;;;35.72;27.64453;945.4434;;;;
2019/06/27 06:26:50;;;;;;;27.8;5.7;;;;;;;35.84;27.92969;945.3772;;;;
2019/06/27 06:29:14;;;;;;;23.5;5.7;;;;;;;36.1;28.68359;945.4219;;;;
2019/06/27 06:31:46;;;;;;;22.9;5.5;;;;;;;36.56;27.22266;945.3705;;;;
2019/06/27 06:34:22;;;;;;;21.8;5.3;;;;;;;36.19;27.00781;945.3289;;;;
2019/06/27 06:37:01;;;;;;;22.1;5.5;;;;;;;36.44;26.86523;945.3484;;;;
2019/06/27 06:39:29;;;;;;;19.6;5.4;;;;;;;36.5;26.06934;945.2626;;;;
2019/06/27 06:41:54;;;;;;;26;5.3;;;;;;;37.04;25.97949;945.2433;;;;
2019/06/27 06:44:30;;;;;;;20.8;5.1;;;;;;;37.33;25.42578;945.2414;;;;
2019/06/27 06:46:59;;;;;;;20.4;5.1;;;;;;;37.53;24.4541;945.2045;;;;
2019/06/27 06:49:25;;;;;;;26.9;5.5;;;;;;;36.72;25.56152;945.1941;;;;
2019/06/27 06:52:06;;;;;;;22.6;5.4;;;;;;;36.71;29.06055;945.1291;;;;
2019/06/27 06:54:33;;;;;;;21.3;5.2;;;;;;;36.99;28.52148;945.17;;;;
2019/06/27 06:56:59;;;;;;;18.6;4.9;;;;;;;37.67;29.88672;945.1312;;;;
2019/06/27 06:59:26;;;;;;;24;5.5;;;;;;;37.81;24.34766;945.0553;;;;
2019/06/27 07:02:16;;;;;;;23.8;5.2;;;;;;;37.85;24.50781;945.0481;;;;
2019/06/27 07:04:42;;;;;;;26.7;5.6;;;;;;;38.13;23.21094;945.0287;;;;
2019/06/27 07:07:17;;;;;;;20;5.4;;;;;;;37.99;23.51953;944.9891;;;;
2019/06/27 07:09:44;;;;;;;20.8;5.3;;;;;;;38.23;25.58496;944.9695;;;;
2019/06/27 07:12:12;;;;;;;25;5.6;;;;;;;38.3;23.9248;944.9601;;;;
2019/06/27 07:14:40;;;;;;;27.8;5.6;;;;;;;38.66;25.75488;944.9615;;;;
2019/06/27 07:17:12;;;;;;;22.6;5.3;;;;;;;39.27;27.18945;945.0249;;;;
2019/06/27 07:19:40;;;;;;;26.3;5.4;;;;;;;39.43;25.55469;945.0474;;;;
2019/06/27 07:22:13;;;;;;;23.4;5.4;;;;;;;39.44;23.58203;944.9697;;;;
2019/06/27 07:24:41;;;;;;;20.6;5;;;;;;;39.43;23.38574;944.9924;;;;
2019/06/27 07:27:12;;;;;;;22.7;5.6;;;;;;;39.81;21.89355;944.9476;;;;
2019/06/27 07:29:41;;;;;;;20.9;5.3;;;;;;;40.59;21.90625;944.9431;;;;
2019/06/27 07:32:09;;;;;;;23.5;6;;;;;;;40.77;20.57129;944.8613;;;;
2019/06/27 07:34:42;;;;;;;20.1;5;;;;;;;40.58;21.7959;944.8929;;;;
2019/06/27 07:37:14;;;;;;;21.9;5.2;;;;;;;40.36;20.73633;944.8566;;;;
2019/06/27 07:39:47;;;;;;;21.6;5.2;;;;;;;40.01;20.98828;944.8767;;;;
2019/06/27 07:42:21;;;;;;;15.5;5.1;;;;;;;40.31;21.125;944.8543;;;;
2019/06/27 07:44:50;;;;;;;21.6;5.1;;;;;;;39.72;24.32715;944.8328;;;;
2019/06/27 07:47:20;;;;;;;21.9;5.2;;;;;;;40.62;24.52148;944.8967;;;;
2019/06/27 07:49:47;;;;;;;20.8;4.8;;;;;;;40.86;22.77441;944.7891;;;;
2019/06/27 07:52:30;;;;;;;23.3;5;;;;;;;40.26;24.66113;944.7797;;;;
2019/06/27 07:54:58;;;;;;;22.5;5.3;;;;;;;40.72;25.4668;944.7733;;;;
2019/06/27 07:57:25;;;;;;;23.9;4.9;;;;;;;41.38;21.6748;944.6821;;;;
2019/06/27 07:59:59;;;;;;;22;5.1;;;;;;;41.58;21.1582;944.7495;;;;
2019/06/27 08:02:24;;;;;;;21.6;5.4;;;;;;;40.64;24.18066;944.6876;;;;
2019/06/27 08:04:56;;;;;;;19.7;5.4;;;;;;;40.99;22.62207;944.7061;;;;
2019/06/27 08:07:26;;;;;;;23.2;5.6;;;;;;;40.66;26.46484;944.6713;;;;
2019/06/27 08:09:53;;;;;;;21.1;4.8;;;;;;;40.89;22.18945;944.5648;;;;
2019/06/27 08:12:22;;;;;;;20.4;4.6;;;;;;;40.55;25.40918;944.5864;;;;
2019/06/27 08:14:45;;;;;;;19.6;5.2;;;;;;;40.25;25.55078;944.577;;;;
2019/06/27 08:17:15;;;;;;;22.2;5;;;;;;;40.98;21.43652;944.515;;;;
2019/06/27 08:19:47;;;;;;;21.3;4.5;;;;;;;41.64;20.21875;944.4689;;;;
2019/06/27 08:22:25;;;;;;;22.1;5.2;;;;;;;41.92;21.03906;944.4282;;;;
2019/06/27 08:24:52;;;;;;;21.6;5.2;;;;;;;42.03;22.05957;944.428;;;;
2019/06/27 08:27:20;;;;;;;22;5.4;;;;;;;41.54;23.57813;944.4476;;;;
2019/06/27 08:30:02;;;;;;;24.7;5.6;;;;;;;41.54;21.81738;944.4058;;;;
2019/06/27 08:32:29;;;;;;;23.2;5.1;;;;;;;40;23.5498;944.3254;;;;
2019/06/27 08:35:03;;;;;;;22.4;5.7;;;;;;;40.68;25.96582;944.2427;;;;
2019/06/27 08:37:27;;;;;;;24.6;5.1;;;;;;;41.17;21.33496;944.2436;;;;
2019/06/27 08:40:05;;;;;;;20.2;5.3;;;;;;;41.15;23.11914;944.2697;;;;
2019/06/27 08:42:30;;;;;;;22.1;5.1;;;;;;;40.94;24.89258;944.2438;;;;
2019/06/27 08:44:55;;;;;;;23.1;4.8;;;;;;;40.85;26.24414;944.2347;;;;
2019/06/27 08:47:24;;;;;;;25.2;5.7;;;;;;;39.85;25.91895;944.1336;;;;
2019/06/27 08:49:49;;;;;;;22.9;5.7;;;;;;;39.72;26.71582;944.1923;;;;
2019/06/27 08:52:22;;;;;;;22;5.2;;;;;;;40.25;24.45313;944.1323;;;;
2019/06/27 08:54:55;;;;;;;22.6;5;;;;;;;40.71;24.34375;944.1561;;;;
2019/06/27 08:57:34;;;;;;;26;5.3;;;;;;;40.7;26.21094;944.19;;;;
2019/06/27 09:00:12;;;;;;;24.2;5.4;;;;;;;39.62;27.89258;944.2029;;;;
2019/06/27 09:02:44;;;;;;;21.3;4.9;;;;;;;39.23;29.79297;944.1789;;;;
2019/06/27 09:05:14;;;;;;;25.2;5.1;;;;;;;38.49;31.49609;944.0872;;;;
2019/06/27 09:07:50;;;;;;;21.2;5;;;;;;;38.51;32.90625;944.2173;;;;
2019/06/27 09:10:22;;;;;;;27;5.2;;;;;;;38.86;28.22363;944.2275;;;;
2019/06/27 09:12:47;;;;;;;22.9;5.1;;;;;;;38.66;26.9707;944.2139;;;;
2019/06/27 09:15:29;;;;;;;18.5;5.3;;;;;;;38.2;27.08984;944.194;;;;
2019/06/27 09:18:10;;;;;;;22.7;5.3;;;;;;;37.53;28.14258;944.2495;;;;
2019/06/27 09:20:44;;;;;;;22.5;5.1;;;;;;;37.68;30.10547;944.2557;;;;
2019/06/27 09:23:09;;;;;;;19.6;5;;;;;;;37.56;30.99512;944.27;;;;
2019/06/27 11:24:50;;;;;;;20.9;5.6;;;;;;;34.82;40.24023;943.9033;;;;
2019/06/27 11:27:22;;;;;;;20.1;6;;;;;;;34.77;40.00684;943.925;;;;
2019/06/27 11:29:52;;;;;;;29.1;6.4;;;;;;;34.83;40.33789;943.923;;;;
2019/06/27 11:32:28;;;;;;;24;6.7;;;;;;;34.9;40.89844;943.875;;;;
2019/06/27 11:34:50;;;;;;;28.7;6.8;;;;;;;34.97;41.61523;943.8505;;;;
2019/06/27 11:37:25;;;;;;;23.1;6.2;;;;;;;35.14;40.9082;943.7385;;;;
2019/06/27 11:39:54;;;;;;;25.4;6.3;;;;;;;34.83;39.92773;943.7734;;;;
2019/06/27 11:42:28;;;;;;;32.1;6.9;;;;;;;34.82;41.5791;943.7311;;;;
2019/06/27 11:45:00;;;;;;;26.6;6.5;;;;;;;34.75;41.05371;943.8233;;;;
2019/06/27 11:47:37;;;;;;;21.6;6.3;;;;;;;34.83;40.56641;943.8091;;;;
2019/06/27 11:50:06;;;;;;;28.5;6.7;;;;;;;34.84;39.60254;943.7006;;;;
2019/06/27 11:53:01;;;;;;;29.7;6.6;;;;;;;34.87;39.71387;943.7311;;;;
2019/06/27 11:55:44;;;;;;;23.1;6.3;;;;;;;34.8;39.09277;943.824;;;;
2019/06/27 11:58:18;;;;;;;22.3;6.4;;;;;;;34.92;39.56055;943.7133;;;;
2019/06/27 12:01:01;;;;;;;25;6.5;;;;;;;34.93;41.0459;943.729;;;;
2019/06/27 12:03:54;;;;;;;18.6;6.3;;;;;;;34.94;40.37109;943.7355;;;;
2019/06/27 12:06:42;;;;;;;20.9;6.6;;;;;;;34.34;41.18555;943.6694;;;;
2019/06/27 12:09:30;;;;;;;25.2;6.4;;;;;;;34.33;41.20801;943.7369;;;;
2019/06/27 12:12:18;;;;;;;28.1;6.9;;;;;;;34.43;41.32617;943.7363;;;;
2019/06/27 12:14:47;;;;;;;21.4;6.3;;;;;;;34.65;41.93652;943.6959;;;;
2019/06/27 12:17:20;;;;;;;25.4;6.8;;;;;;;34.58;41.68945;943.7177;;;;
2019/06/27 12:20:09;;;;;;;27.1;6.7;;;;;;;34.52;43.11719;943.6152;;;;
2019/06/27 12:22:49;;;;;;;24.1;6.5;;;;;;;34.62;42.31934;943.671;;;;
2019/06/27 12:25:21;;;;;;;21.6;6.3;;;;;;;34.71;41.41113;943.6728;;;;
2019/06/27 12:28:08;;;;;;;21.9;6.4;;;;;;;34.35;43.7041;943.659;;;;
2019/06/27 12:30:33;;;;;;;29.2;7;;;;;;;34.47;41.26953;943.6766;;;;
2019/06/27 12:33:11;;;;;;;21;6.7;;;;;;;34.44;42.63965;943.6951;;;;
2019/06/27 12:36:05;;;;;;;23.7;6.8;;;;;;;34.6;42.45117;943.6738;;;;
2019/06/27 12:38:25;;;;;;;25;6.8;;;;;;;34.77;41.62207;943.7092;;;;
2019/06/27 12:40:54;;;;;;;19.8;6.5;;;;;;;34.65;40.61133;943.6351;;;;
2019/06/27 12:43:40;;;;;;;28.4;6.8;;;;;;;34.73;41.4375;943.6117;;;;
2019/06/27 12:46:16;;;;;;;26.1;6.1;;;;;;;34.7;42.09766;943.6213;;;;
2019/06/27 12:48:49;;;;;;;23.4;6.7;;;;;;;34.55;42.2041;943.6359;;;;
2019/06/27 12:51:27;;;;;;;19.5;6.1;;;;;;;34.49;42.5;943.6115;;;;
2019/06/27 12:53:55;;;;;;;24.8;6.5;;;;;;;34.46;42.77539;943.4966;;;;
2019/06/27 12:56:32;;;;;;;22.8;6.6;;;;;;;34.32;43.05176;943.6232;;;;
2019/06/27 12:59:18;;;;;;;24.8;6.5;;;;;;;34.14;41.93848;943.6208;;;;
2019/06/27 13:01:49;;;;;;;27.8;7.1;;;;;;;34.18;42.95313;943.623;;;;
2019/06/27 13:04:48;;;;;;;23.5;7;;;;;;;34.27;44.10645;943.5669;;;;
2019/06/27 13:07:41;;;;;;;20.5;6.8;;;;;;;34.21;43.5459;943.4494;;;;
2019/06/27 13:10:12;;;;;;;50.6;7.6;;;;;;;34.22;43.4502;943.5446;;;;
2019/06/27 13:12:52;;;;;;;21.5;6.6;;;;;;;34.11;44.04199;943.5655;;;;
2019/06/27 13:15:32;;;;;;;25.1;6.9;;;;;;;33.83;43.2207;943.4917;;;;
2019/06/27 13:18:09;;;;;;;19;6.3;;;;;;;33.95;43.79785;943.4622;;;;
2019/06/27 13:20:56;;;;;;;24.5;7;;;;;;;33.97;44.94434;943.4355;;;;
2019/06/27 13:23:19;;;;;;;22.9;7.1;;;;;;;33.78;43.91504;943.4128;;;;
2019/06/27 13:25:52;;;;;;;26.3;6.9;;;;;;;33.49;45.16016;943.28;;;;
2019/06/27 13:28:36;;;;;;;24.7;7;;;;;;;33.37;45.1123;943.3414;;;;
2019/06/27 13:31:19;;;;;;;21.3;7.1;;;;;;;33.54;46.64355;943.3814;;;;
2019/06/27 13:33:52;;;;;;;25.9;6.5;;;;;;;33.28;45.42871;943.2916;;;;
2019/06/27 13:36:34;;;;;;;22.5;7.1;;;;;;;33.2;46.05762;943.3181;;;;
2019/06/27 13:39:07;;;;;;;21.5;6.9;;;;;;;33.19;45.6709;943.334;;;;
2019/06/27 13:41:46;;;;;;;20.8;7.1;;;;;;;32.88;45.82031;943.2919;;;;
2019/06/27 13:44:10;;;;;;;19.8;6.7;;;;;;;32.71;46.74023;943.3383;;;;
2019/06/27 13:46:37;;;;;;;18.7;7.2;;;;;;;32.66;46.68652;943.2383;;;;
2019/06/27 13:49:23;;;;;;;20.6;7.2;;;;;;;32.46;48.17773;943.2162;;;;
2019/06/27 13:52:04;;;;;;;20;7.6;;;;;;;32.48;47.76074;943.269;;;;
2019/06/27 13:54:33;;;;;;;23;6.6;;;;;;;32.52;47.28418;943.253;;;;
2019/06/27 13:57:13;;;;;;;23.3;7;;;;;;;32.25;47.90332;943.2296;;;;
2019/06/27 13:59:39;;;;;;;18.6;7.1;;;;;;;32.24;48.70508;943.1926;;;;
2019/06/27 14:02:20;;;;;;;23.5;7.6;;;;;;;32.12;48.40625;943.1557;;;;
2019/06/27 14:04:48;;;;;;;23.7;7.2;;;;;;;32.17;48.27832;943.1819;;;;
2019/06/27 14:07:19;;;;;;;22.9;7.8;;;;;;;32.16;48.54199;943.1978;;;;
2019/06/27 14:10:00;;;;;;;19.4;7.3;;;;;;;32.03;48.76758;943.2109;;;;
2019/06/27 14:12:35;;;;;;;19.6;7;;;;;;;31.9;49.07715;943.2072;;;;
2019/06/27 14:15:10;;;;;;;20.6;7.6;;;;;;;31.75;50.03125;943.1715;;;;
2019/06/27 14:17:42;;;;;;;20.6;7.3;;;;;;;31.77;49.7334;943.1544;;;;
2019/06/27 14:20:04;;;;;;;19;7.7;;;;;;;31.81;50.73242;943.1174;;;;
2019/06/27 14:22:47;;;;;;;20.7;7.6;;;;;;;31.68;52.19141;943.1831;;;;
2019/06/27 14:25:20;;;;;;;15.4;7;;;;;;;31.77;51.42285;943.1767;;;;
2019/06/27 14:27:43;;;;;;;17.6;7.4;;;;;;;31.66;51.26563;943.0645;;;;
2019/06/27 14:30:14;;;;;;;19.6;7.3;;;;;;;31.74;51.19141;943.1122;;;;
2019/06/27 14:32:49;;;;;;;23.8;7.6;;;;;;;31.73;50.13574;943.0779;;;;
2019/06/27 14:35:32;;;;;;;18.5;7.6;;;;;;;31.58;50.40625;943.0208;;;;
2019/06/27 14:38:33;;;;;;;23.2;7.6;;;;;;;31.61;50.67383;943.0682;;;;
2019/06/27 14:41:08;;;;;;;17;7.1;;;;;;;31.61;50.74609;943.0366;;;;
2019/06/27 14:43:48;;;;;;;19.5;7.6;;;;;;;31.66;51.78027;942.9894;;;;
2019/06/27 14:46:15;;;;;;;19.8;7.6;;;;;;;31.68;50.35742;942.9683;;;;
2019/06/27 14:48:57;;;;;;;16.7;7.6;;;;;;;31.63;50.81934;943.0208;;;;
2019/06/27 14:51:41;;;;;;;20;7.4;;;;;;;31.66;51.43457;943.0237;;;;
2019/06/27 14:54:33;;;;;;;21.8;7.3;;;;;;;31.57;50.74121;943.0392;;;;
2019/06/27 14:57:27;;;;;;;17.7;7.5;;;;;;;31.55;51.08594;942.9247;;;;
2019/06/27 15:00:11;;;;;;;19.8;7.5;;;;;;;31.59;50.86328;942.8733;;;;
2019/06/27 15:02:44;;;;;;;18.4;7.4;;;;;;;31.68;50.81348;942.8708;;;;
2019/06/27 15:05:22;;;;;;;16.5;7.8;;;;;;;31.77;50.56055;942.8209;;;;
2019/06/27 15:08:09;;;;;;;20.5;7.7;;;;;;;31.82;50.09863;942.7194;;;;
2019/06/27 15:10:51;;;;;;;17.2;7.7;;;;;;;31.75;51.3252;942.6918;;;;
2019/06/27 15:13:36;;;;;;;17.4;7.7;;;;;;;31.55;51.02734;942.7349;;;;
2019/06/27 15:16:18;;;;;;;20.8;7.3;;;;;;;31.62;50.49512;942.7546;;;;
2019/06/27 15:19:02;;;;;;;18.2;7.4;;;;;;;31.6;50.12207;942.7494;;;;
2019/06/27 15:21:44;;;;;;;21.9;7.7;;;;;;;31.64;50.06641;942.668;;;;
2019/06/27 15:24:17;;;;;;;23.5;7.6;;;;;;;31.59;50.51563;942.7204;;;;
2019/06/27 15:27:10;;;;;;;21.6;8;;;;;;;31.57;51.0293;942.7191;;;;
2019/06/27 15:29:37;;;;;;;22.7;8;;;;;;;31.63;51.64551;942.6992;;;;
2019/06/27 15:32:13;;;;;;;22;7.8;;;;;;;31.7;49.86914;942.6916;;;;
2019/06/27 15:35:04;;;;;;;23.8;7.8;;;;;;;31.73;50.55664;942.6206;;;;
2019/06/27 15:37:33;;;;;;;18.8;8;;;;;;;31.64;51.2041;942.6152;;;;
2019/06/27 15:40:32;;;;;;;19.5;7.6;;;;;;;31.59;50.62305;942.5623;;;;
2019/06/27 15:43:02;;;;;;;19.8;7.9;;;;;;;31.41;51.32324;942.6096;;;;
2019/06/27 15:45:31;;;;;;;23.8;8;;;;;;;31.34;50.99121;942.5121;;;;
2019/06/27 15:48:31;;;;;;;24;8.2;;;;;;;31.34;51.81738;942.5212;;;;
2019/06/27 15:51:02;;;;;;;21.4;7.9;;;;;;;31.28;51.96484;942.5845;;;;
2019/06/27 15:53:27;;;;;;;19.7;8.1;;;;;;;31.34;51.49414;942.5385;;;;
2019/06/27 15:55:57;;;;;;;26;8.2;;;;;;;31.21;53.08105;942.4959;;;;
2019/06/27 15:58:56;;;;;;;19.6;8.1;;;;;;;31.22;51.95801;942.4855;;;;
2019/06/27 16:01:38;;;;;;;16.6;8.3;;;;;;;31.2;52.95996;942.4841;;;;
2019/06/27 16:04:02;;;;;;;17.8;8.2;;;;;;;31.05;52.3457;942.4877;;;;
2019/06/27 16:06:38;;;;;;;18;8.6;;;;;;;31.19;52.35059;942.442;;;;
2019/06/27 16:09:10;;;;;;;20.5;8.8;;;;;;;31.09;53.06836;942.5193;;;;
2019/06/27 16:11:52;;;;;;;26.6;9;;;;;;;31.16;52.5625;942.4588;;;;
2019/06/27 16:14:42;;;;;;;20;9.1;;;;;;;31.25;52.51074;942.5069;;;;
2019/06/27 16:17:28;;;;;;;17.9;9.1;;;;;;;31.25;52.54883;942.5056;;;;
2019/06/27 16:20:15;;;;;;;23.8;9.1;;;;;;;31.4;52.69629;942.4766;;;;
2019/06/27 16:22:41;;;;;;;24.6;9.5;;;;;;;31.23;53.12012;942.4828;;;;
2019/06/27 16:25:28;;;;;;;27.7;9.7;;;;;;;31.07;53.93848;942.4706;;;;
2019/06/27 16:27:58;;;;;;;25.1;9.6;;;;;;;31.22;53.46582;942.467;;;;
2019/06/27 16:30:32;;;;;;;26.2;11.3;;;;;;;31.29;52.80469;942.4989;;;;
2019/06/27 16:33:31;;;;;;;22.9;9.5;;;;;;;31.16;53.11133;942.4601;;;;
2019/06/27 16:35:58;;;;;;;21.4;8.9;;;;;;;31.04;53.19336;942.4324;;;;
2019/06/27 16:38:39;;;;;;;20;9.1;;;;;;;31.1;53.16406;942.4443;;;;
2019/06/27 16:41:24;;;;;;;20.9;9.3;;;;;;;31.25;53.20703;942.4792;;;;
2019/06/27 16:43:54;;;;;;;21.8;9.1;;;;;;;31.41;53.30957;942.4119;;;;
2019/06/27 16:46:35;;;;;;;19.5;9.5;;;;;;;31.52;53.41699;942.5044;;;;
2019/06/27 16:49:13;;;;;;;19.3;8.9;;;;;;;31.51;53.35645;942.4872;;;;
2019/06/27 16:51:57;;;;;;;20.1;9;;;;;;;31.46;52.7998;942.5189;;;;